createdAt,value
2018-06-18T00:01:46.732Z,101499.09
2018-06-18T00:06:49.792Z,101504.86
2018-06-18T00:11:52.843Z,101497.45
2018-06-18T00:16:55.931Z,101496.71
2018-06-18T00:21:59.042Z,101491.19
2018-06-18T00:27:02.115Z,101494.86
2018-06-18T00:32:05.698Z,101497.23
2018-06-18T00:37:08.824Z,101506.80
2018-06-18T00:42:11.925Z,101510.72
2018-06-18T00:47:14.995Z,101510.77
2018-06-18T00:52:18.054Z,101499.01
2018-06-18T00:57:21.144Z,101510.36
2018-06-18T01:02:24.198Z,101502.03
2018-06-18T01:07:27.274Z,101498.69
2018-06-18T01:12:30.273Z,101510.32
2018-06-18T01:17:33.405Z,101500.30
2018-06-18T01:22:39.051Z,101494.48
2018-06-18T01:27:42.195Z,101492.23
2018-06-18T01:32:45.313Z,101484.83
2018-06-18T01:37:48.373Z,101390.98
2018-06-18T01:42:51.640Z,101475.23
2018-06-18T01:47:54.711Z,101469.73
2018-06-18T01:52:58.100Z,101464.60
2018-06-18T01:58:01.143Z,101474.72
2018-06-18T02:03:04.210Z,101473.48
2018-06-18T02:08:07.224Z,101472.16
2018-06-18T02:13:10.269Z,101470.47
2018-06-18T02:18:13.308Z,101483.97
2018-06-18T02:23:16.387Z,101475.55
2018-06-18T02:28:25.043Z,101474.86
2018-06-18T02:33:33.666Z,101471.43
2018-06-18T02:38:42.217Z,101469.83
2018-06-18T02:43:45.328Z,101472.84
2018-06-18T02:48:48.399Z,101471.06
2018-06-18T02:53:51.565Z,101476.09
2018-06-18T02:58:54.641Z,101480.94
2018-06-18T03:03:57.874Z,101488.03
2018-06-18T03:09:00.903Z,101494.48
2018-06-18T03:14:04.457Z,101492.66
2018-06-18T03:19:13.385Z,101483.37
2018-06-18T03:24:21.958Z,101484.70
2018-06-18T03:29:27.857Z,101468.87
2018-06-18T03:34:30.926Z,101466.34
2018-06-18T03:39:33.978Z,101478.20
2018-06-18T03:44:49.916Z,101489.59
2018-06-18T03:49:53.162Z,101478.33
2018-06-18T03:54:59.766Z,101475.41
2018-06-18T04:00:03.057Z,101477.14
2018-06-18T04:05:11.882Z,101488.02
2018-06-18T04:10:21.004Z,101479.85
2018-06-18T04:15:24.139Z,101484.64
2018-06-18T04:20:31.252Z,101475.16
2018-06-18T04:25:34.346Z,101490.28
2018-06-18T04:30:37.378Z,101483.06
2018-06-18T04:35:40.437Z,101486.80
2018-06-18T04:40:43.463Z,101485.04
2018-06-18T04:45:51.017Z,101490.63
2018-06-18T04:50:59.617Z,101489.55
2018-06-18T04:56:02.692Z,101482.00
2018-06-18T05:01:22.010Z,101479.66
2018-06-18T05:06:27.113Z,101477.79
2018-06-18T05:11:30.111Z,101462.49
2018-06-18T05:16:33.369Z,101474.28
2018-06-18T05:21:36.437Z,101471.11
2018-06-18T05:26:45.282Z,101487.86
2018-06-18T05:31:48.273Z,101495.52
2018-06-18T05:36:53.624Z,101504.50
2018-06-18T05:41:56.664Z,101492.70
2018-06-18T05:46:59.689Z,101493.06
2018-06-18T05:52:02.750Z,101486.70
2018-06-18T05:57:05.809Z,101473.56
2018-06-18T06:02:08.869Z,101471.22
2018-06-18T06:07:11.864Z,101477.42
2018-06-18T06:12:14.849Z,101473.73
2018-06-18T06:17:17.867Z,101477.59
2018-06-18T06:22:20.882Z,101480.83
2018-06-18T06:27:23.941Z,101485.30
2018-06-18T06:32:27.023Z,101494.31
2018-06-18T06:37:30.153Z,101509.28
2018-06-18T06:42:33.135Z,101512.75
2018-06-18T06:47:36.168Z,101511.62
2018-06-18T06:52:39.231Z,101509.86
2018-06-18T06:57:42.247Z,101516.13
2018-06-18T07:02:45.242Z,101530.20
2018-06-18T07:07:48.286Z,101530.48
2018-06-18T07:12:51.382Z,101548.15
2018-06-18T07:17:54.412Z,101553.59
2018-06-18T07:22:57.537Z,101555.66
2018-06-18T07:28:00.594Z,101552.84
2018-06-18T07:33:03.602Z,101547.60
2018-06-18T07:38:06.634Z,101546.42
2018-06-18T07:43:09.699Z,101538.23
2018-06-18T07:48:13.227Z,101531.60
2018-06-18T07:53:16.284Z,101529.03
2018-06-18T07:58:19.304Z,101530.81
2018-06-18T08:03:22.350Z,101528.56
2018-06-18T08:08:25.502Z,101529.56
2018-06-18T08:13:28.495Z,101532.72
2018-06-18T08:18:31.526Z,101529.13
2018-06-18T08:23:34.566Z,101530.64
2018-06-18T08:28:37.594Z,101523.99
2018-06-18T08:33:40.673Z,101529.48
2018-06-18T08:38:43.754Z,101522.23
2018-06-18T08:43:46.805Z,101518.31
2018-06-18T08:48:55.513Z,101511.87
2018-06-18T08:54:04.216Z,101519.22
2018-06-18T08:59:12.832Z,101523.23
2018-06-18T09:04:21.704Z,101517.68
2018-06-18T09:09:24.797Z,101517.60
2018-06-18T09:14:27.796Z,101515.44
2018-06-18T09:19:30.829Z,101511.92
2018-06-18T09:24:34.196Z,101513.72
2018-06-18T09:29:37.257Z,101515.72
2018-06-18T09:34:40.428Z,101518.23
2018-06-18T09:39:43.489Z,101531.20
2018-06-18T09:44:46.585Z,101527.02
2018-06-18T09:49:55.194Z,101520.63
2018-06-18T09:55:03.757Z,101516.77
2018-06-18T10:00:14.657Z,101511.18
2018-06-18T10:05:17.656Z,101506.70
2018-06-18T10:10:20.706Z,101499.70
2018-06-18T10:15:23.689Z,101504.87
2018-06-18T10:20:26.711Z,101517.12
2018-06-18T10:25:29.787Z,101513.47
2018-06-18T10:30:32.818Z,101515.27
2018-06-18T10:35:41.489Z,101516.67
2018-06-18T10:40:50.330Z,101502.95
2018-06-18T10:45:53.321Z,101505.45
2018-06-18T10:50:56.965Z,101511.50
2018-06-18T10:56:00.032Z,101510.34
2018-06-18T11:01:08.036Z,101511.20
2018-06-18T11:06:16.790Z,101514.80
2018-06-18T11:11:22.144Z,101517.48
2018-06-18T11:16:25.420Z,101521.01
2018-06-18T11:21:34.421Z,101516.34
2018-06-18T11:26:43.140Z,101514.84
2018-06-18T11:31:46.173Z,101508.04
2018-06-18T11:36:49.224Z,101500.20
2018-06-18T11:41:52.235Z,101489.09
2018-06-18T11:46:55.218Z,101485.00
2018-06-18T11:51:58.259Z,101482.38
2018-06-18T11:57:01.269Z,101486.52
2018-06-18T12:02:10.079Z,101492.17
2018-06-18T12:07:18.757Z,101485.68
2018-06-18T12:12:21.820Z,101489.40
2018-06-18T12:17:24.906Z,101476.09
2018-06-18T12:22:27.898Z,101477.63
2018-06-18T12:27:33.454Z,101474.59
2018-06-18T12:32:36.486Z,101467.34
2018-06-18T12:37:39.505Z,101464.61
2018-06-18T12:42:42.598Z,101464.97
2018-06-18T12:47:51.343Z,101460.50
2018-06-18T12:52:59.960Z,101455.48
2018-06-18T12:58:03.021Z,101451.14
2018-06-18T13:03:10.304Z,101460.45
2018-06-18T13:08:13.594Z,101460.94
2018-06-18T13:13:16.695Z,101461.31
2018-06-18T13:18:19.815Z,101456.00
2018-06-18T13:23:22.809Z,101467.31
2018-06-18T13:28:25.798Z,101466.70
2018-06-18T13:33:28.822Z,101470.89
2018-06-18T13:38:37.447Z,101477.48
2018-06-18T13:43:46.078Z,101467.13
2018-06-18T13:48:51.953Z,101468.06
2018-06-18T13:53:55.085Z,101462.44
2018-06-18T13:58:58.106Z,101462.17
2018-06-18T14:04:01.097Z,101465.23
2018-06-18T14:09:06.111Z,101452.62
2018-06-18T14:14:09.155Z,101458.38
2018-06-18T14:19:17.732Z,101456.38
2018-06-18T14:24:20.885Z,101459.84
2018-06-18T14:29:29.592Z,101462.07
2018-06-18T14:34:38.172Z,101459.63
2018-06-18T14:39:51.605Z,101450.53
2018-06-18T14:44:54.665Z,101458.11
2018-06-18T14:49:57.649Z,101453.91
2018-06-18T14:55:00.783Z,101455.83
2018-06-18T15:00:24.813Z,101462.33
2018-06-18T15:05:34.161Z,101451.70
2018-06-18T15:10:42.952Z,101452.86
2018-06-18T15:16:00.439Z,101444.98
2018-06-18T15:21:04.107Z,101444.70
2018-06-18T15:26:07.226Z,101437.83
2018-06-18T15:31:10.195Z,101444.89
2018-06-18T15:36:13.230Z,101442.41
2018-06-18T15:41:16.257Z,101459.19
2018-06-18T15:46:19.261Z,101455.55
2018-06-18T15:51:22.251Z,101462.84
2018-06-18T15:56:25.265Z,101470.78
2018-06-18T16:01:28.269Z,101472.14
2018-06-18T16:06:31.301Z,101470.55
2018-06-18T16:11:34.309Z,101455.41
2018-06-18T16:16:37.559Z,101445.50
2018-06-18T16:21:40.551Z,101448.59
2018-06-18T16:26:44.018Z,101450.11
2018-06-18T16:31:47.251Z,101456.22
2018-06-18T16:36:50.265Z,101453.48
2018-06-18T16:41:53.331Z,101447.90
2018-06-18T16:46:56.333Z,101445.45
2018-06-18T16:51:59.347Z,101444.46
2018-06-18T16:57:03.643Z,101456.30
2018-06-18T17:02:08.052Z,101451.48
2018-06-18T17:07:12.031Z,101451.70
2018-06-18T17:12:15.148Z,101451.09
2018-06-18T17:17:18.211Z,101454.63
2018-06-18T17:22:21.226Z,101464.73
2018-06-18T17:27:24.274Z,101469.20
2018-06-18T17:32:27.318Z,101461.56
2018-06-18T17:37:30.341Z,101459.72
2018-06-18T17:42:33.325Z,101458.62
2018-06-18T17:47:36.329Z,101450.73
2018-06-18T17:52:39.413Z,101446.58
2018-06-18T17:57:42.418Z,101449.63
2018-06-18T18:02:45.695Z,101442.20
2018-06-18T18:07:48.712Z,101452.89
2018-06-18T18:12:51.933Z,101448.02
2018-06-18T18:17:54.994Z,101456.09
2018-06-18T18:22:58.310Z,101454.98
2018-06-18T18:28:01.285Z,101453.27
2018-06-18T18:33:04.525Z,101450.59
2018-06-18T18:38:07.543Z,101457.30
2018-06-18T18:43:10.520Z,101463.62
2018-06-18T18:48:13.600Z,101461.28
2018-06-18T18:53:16.611Z,101472.61
2018-06-18T18:59:28.774Z,101472.58
2018-06-18T19:05:05.019Z,101464.85
2018-06-18T19:10:41.149Z,101457.30
2018-06-18T19:15:44.199Z,101462.32
2018-06-18T19:20:55.272Z,101460.23
2018-06-18T19:25:58.310Z,101459.45
2018-06-18T19:31:05.229Z,101452.02
2018-06-18T19:36:08.499Z,101453.00
2018-06-18T19:41:11.471Z,101454.06
2018-06-18T19:46:16.094Z,101456.52
2018-06-18T19:51:19.188Z,101453.02
2018-06-18T19:56:22.292Z,101456.25
2018-06-18T20:01:25.413Z,101473.30
2018-06-18T20:06:28.525Z,101480.66
2018-06-18T20:11:31.654Z,101477.05
2018-06-18T20:16:35.103Z,101476.08
2018-06-18T20:21:38.062Z,101482.34
2018-06-18T20:26:41.062Z,101484.14
2018-06-18T20:31:45.058Z,101479.03
2018-06-18T20:36:48.158Z,101484.94
2018-06-18T20:41:51.261Z,101484.39
2018-06-18T20:46:54.257Z,101486.02
2018-06-18T20:51:57.297Z,101482.08
2018-06-18T20:57:00.310Z,101473.28
2018-06-18T21:02:03.385Z,101478.97
2018-06-18T21:07:06.393Z,101486.11
2018-06-18T21:12:09.386Z,101492.86
2018-06-18T21:17:12.435Z,101507.84
2018-06-18T21:22:15.776Z,101509.20
2018-06-18T21:27:18.845Z,101520.84
2018-06-18T21:32:21.841Z,101526.45
2018-06-18T21:37:24.901Z,101529.11
2018-06-18T21:42:27.895Z,101529.55
2018-06-18T21:47:30.942Z,101520.46
2018-06-18T21:52:33.988Z,101529.92
2018-06-18T21:57:37.062Z,101531.61
2018-06-18T22:02:40.218Z,101536.82
2018-06-18T22:07:43.908Z,101524.94
2018-06-18T22:12:46.982Z,101523.74
2018-06-18T22:17:50.067Z,101523.39
2018-06-18T22:22:53.352Z,101529.36
2018-06-18T22:27:56.513Z,101530.89
2018-06-18T22:32:59.561Z,101528.34
2018-06-18T22:38:02.611Z,101534.98
2018-06-18T22:43:05.947Z,101540.89
2018-06-18T22:48:08.987Z,101540.89
2018-06-18T22:53:12.006Z,101546.66
2018-06-18T22:58:15.106Z,101541.33
2018-06-18T23:03:18.215Z,101538.75
2018-06-18T23:08:21.265Z,101532.44
2018-06-18T23:13:30.226Z,101539.56
2018-06-18T23:18:33.288Z,101539.78
2018-06-18T23:23:36.355Z,101541.83
2018-06-18T23:28:50.732Z,101549.13
2018-06-18T23:33:53.874Z,101550.66
2018-06-18T23:38:56.942Z,101548.73
2018-06-18T23:43:59.946Z,101552.31
2018-06-18T23:49:02.989Z,101547.75
2018-06-18T23:54:06.067Z,101537.27
2018-06-18T23:59:09.575Z,101544.23
